Seattle, Washington
Traffic Map
Current Weather Conditions
Seattle, Washington
Clear
Clear
62°
Feels Like: 62°
Wind Chill: 62° Ceiling: Unl
Heat Index: 62° Visibility: 10mi
Dew Point: 52° Wind: 0mph
Humidity: 70% Direction: ° ()
Pressure: 30.05in Gusts: 0mph
Raw Report DataKBFI 221453Z 00000KT 10SM CLR 17/11 A3005 RMK AO2 SLP175 T01670111 53010
Traffic Incident Summary
Active as of:
Severity:
Category:
InformationThere was an issue retrieving the traffic information for this location. Please try a different location or try again shortly.
Advertisements
Track Severe Weather on mobile